Time;durP1;ratioP1;P1;durP2;ratioP2;P2;SDS_P1;SDS_P2;PMS_P1;PMS_P2;Temp;Humidity;BMP_temperature;BMP_pressure;BME280_temperature;BME280_humidity;BME280_pressure;Samples;Min_cycle;Max_cycle;Signal;HPM_P1;HPM_P2
2021/04/12 00:02:25;;;;;;;0.70;0.70;;;7.50;99.90;;;;;;5012865;28;20045;-95
2021/04/12 00:05:11;;;;;;;0.57;0.55;;;7.40;99.90;;;;;;5004714;28;20017;-94
2021/04/12 00:07:54;;;;;;;0.40;0.40;;;7.20;99.90;;;;;;5012308;28;20122;-93
2021/04/12 00:10:58;;;;;;;0.93;0.60;;;7.10;99.90;;;;;;5011522;28;20034;-94
2021/04/12 00:13:31;;;;;;;0.60;0.50;;;7.10;99.90;;;;;;5011738;28;20569;-93
2021/04/12 00:16:02;;;;;;;0.50;0.50;;;7.30;99.90;;;;;;5014948;28;20041;-94
2021/04/12 00:18:39;;;;;;;0.80;0.68;;;7.30;99.90;;;;;;5012048;28;20083;-94
2021/04/12 00:21:18;;;;;;;0.70;0.60;;;7.40;99.90;;;;;;5013461;28;20498;-94
2021/04/12 00:24:01;;;;;;;0.60;0.60;;;7.30;99.90;;;;;;5010374;28;20042;-93
2021/04/12 00:26:42;;;;;;;0.40;0.40;;;7.30;99.90;;;;;;5010102;28;20108;-95
2021/04/12 00:29:17;;;;;;;0.80;0.68;;;7.30;99.90;;;;;;5014552;28;20029;-94
2021/04/12 00:31:58;;;;;;;0.80;0.80;;;7.20;99.90;;;;;;5013242;28;20034;-95
2021/04/12 00:34:41;;;;;;;1.25;0.60;;;7.30;99.90;;;;;;5009346;28;20105;-94
2021/04/12 00:37:37;;;;;;;0.75;0.75;;;7.30;99.90;;;;;;5011978;28;20030;-94
2021/04/12 00:40:24;;;;;;;1.55;0.80;;;7.40;99.90;;;;;;5006267;28;20038;-94
2021/04/12 00:43:16;;;;;;;0.85;0.70;;;7.40;99.90;;;;;;5013360;28;20060;-94
2021/04/12 00:45:45;;;;;;;0.73;0.70;;;7.60;99.90;;;;;;5011628;28;20033;-94
2021/04/12 00:48:35;;;;;;;1.10;0.82;;;7.50;99.90;;;;;;4993960;28;20029;-94
2021/04/12 00:51:28;;;;;;;1.33;0.80;;;7.60;99.90;;;;;;5010248;28;20084;-94
2021/04/12 00:54:31;;;;;;;0.60;0.60;;;7.60;99.90;;;;;;5010784;28;20050;-94
2021/04/12 00:57:15;;;;;;;0.80;0.80;;;7.60;99.90;;;;;;5012634;28;20033;-94
2021/04/12 01:00:07;;;;;;;0.70;0.70;;;7.50;99.90;;;;;;5012577;28;20040;-95
2021/04/12 01:02:57;;;;;;;1.00;0.90;;;7.40;99.90;;;;;;5012244;28;20077;-94
2021/04/12 01:05:34;;;;;;;0.85;0.80;;;7.50;99.90;;;;;;5012122;28;20080;-93
2021/04/12 01:08:19;;;;;;;0.82;0.80;;;7.50;99.90;;;;;;5008115;28;20529;-94
2021/04/12 01:11:14;;;;;;;1.98;1.00;;;7.50;99.90;;;;;;5011394;28;20109;-95
2021/04/12 01:13:42;;;;;;;1.48;1.00;;;7.50;99.90;;;;;;4933793;29;20079;-94
2021/04/12 01:16:37;;;;;;;0.93;0.85;;;7.50;99.90;;;;;;4925251;29;20031;-94
2021/04/12 01:19:48;;;;;;;2.30;1.20;;;7.60;99.90;;;;;;4932849;29;20489;-95
2021/04/12 01:22:29;;;;;;;1.38;1.20;;;7.40;99.90;;;;;;4933071;29;20082;-94
2021/04/12 01:25:00;;;;;;;1.05;1.00;;;7.60;99.90;;;;;;4934405;29;20512;-95
2021/04/12 01:27:44;;;;;;;1.10;1.00;;;7.50;99.90;;;;;;4933653;29;20037;-94
2021/04/12 01:30:12;;;;;;;1.40;1.30;;;7.60;99.90;;;;;;4912667;29;20310;-95
2021/04/12 01:33:09;;;;;;;1.30;1.20;;;7.50;99.90;;;;;;4929765;29;20028;-95
2021/04/12 01:35:59;;;;;;;1.48;1.23;;;7.40;99.90;;;;;;4922471;29;20032;-95
2021/04/12 01:38:27;;;;;;;1.27;1.17;;;7.40;99.90;;;;;;4933107;29;20028;-94
2021/04/12 01:41:11;;;;;;;1.50;1.40;;;7.60;99.90;;;;;;4933939;29;20369;-95
2021/04/12 01:44:17;;;;;;;1.52;1.42;;;7.60;99.90;;;;;;4930719;29;20060;-95
2021/04/12 01:47:21;;;;;;;1.20;1.10;;;7.70;99.90;;;;;;4934171;29;20042;-95
2021/04/12 01:50:18;;;;;;;1.40;1.30;;;7.70;99.90;;;;;;4960731;28;20100;-94
2021/04/12 01:53:16;;;;;;;1.50;1.40;;;7.70;99.90;;;;;;5009570;28;20065;-94
2021/04/12 01:55:56;;;;;;;1.70;1.60;;;7.70;99.90;;;;;;5009223;28;20116;-95
2021/04/12 01:58:38;;;;;;;2.10;1.58;;;7.80;99.90;;;;;;5009323;28;20106;-94
2021/04/12 02:01:09;;;;;;;1.90;1.65;;;7.50;99.90;;;;;;5013506;28;20037;-94
2021/04/12 02:03:49;;;;;;;1.92;1.50;;;8.00;99.90;;;;;;4997018;28;20487;-95
2021/04/12 02:06:44;;;;;;;1.80;1.70;;;7.50;99.90;;;;;;5011858;28;20026;-94
2021/04/12 02:09:47;;;;;;;2.00;1.80;;;7.50;99.90;;;;;;5011263;28;20081;-94
2021/04/12 02:12:15;;;;;;;1.63;1.52;;;7.60;99.90;;;;;;5010238;28;20109;-95
2021/04/12 02:14:57;;;;;;;1.92;1.67;;;7.90;99.90;;;;;;5010380;28;20026;-95
2021/04/12 02:17:55;;;;;;;1.90;1.70;;;7.60;99.90;;;;;;5009582;28;20026;-95
2021/04/12 02:20:55;;;;;;;2.08;1.88;;;7.50;99.90;;;;;;5006353;28;20038;-94
2021/04/12 02:23:53;;;;;;;1.67;1.58;;;7.40;99.90;;;;;;4998468;28;20121;-94
2021/04/12 02:27:00;;;;;;;2.20;1.67;;;7.30;99.90;;;;;;4990580;28;20107;-94
2021/04/12 02:29:28;;;;;;;2.38;1.80;;;7.50;99.90;;;;;;4934261;29;20434;-95
2021/04/12 02:32:31;;;;;;;1.83;1.73;;;7.70;99.90;;;;;;4934835;29;20043;-95
2021/04/12 02:35:27;;;;;;;1.98;1.85;;;7.50;99.90;;;;;;4933112;29;20032;-94
2021/04/12 02:38:14;;;;;;;2.58;1.70;;;7.50;99.90;;;;;;4918158;29;20033;-94
2021/04/12 02:41:13;;;;;;;2.10;1.70;;;7.70;99.90;;;;;;4933386;29;20055;-95
2021/04/12 02:44:17;;;;;;;1.73;1.63;;;7.60;99.90;;;;;;4929931;29;20424;-94
2021/04/12 02:47:26;;;;;;;1.70;1.58;;;7.50;99.90;;;;;;4932423;29;20044;-94
2021/04/12 02:50:05;;;;;;;2.20;1.77;;;7.60;99.90;;;;;;4932804;29;20122;-94
2021/04/12 02:52:52;;;;;;;1.73;1.63;;;7.40;99.90;;;;;;4932680;29;20118;-95
2021/04/12 02:55:39;;;;;;;2.28;1.40;;;7.40;99.90;;;;;;4933209;29;20130;-94
2021/04/12 02:58:13;;;;;;;1.90;1.25;;;7.80;99.90;;;;;;4933038;29;20043;-94
2021/04/12 03:01:16;;;;;;;1.50;1.40;;;7.60;99.90;;;;;;4936597;29;20095;-94
2021/04/12 03:03:41;;;;;;;2.90;1.60;;;7.50;99.90;;;;;;4935720;29;20519;-95
2021/04/12 03:06:41;;;;;;;1.40;1.30;;;7.80;99.90;;;;;;4961958;28;20033;-95
2021/04/12 03:09:38;;;;;;;2.67;1.30;;;7.40;99.90;;;;;;4997309;28;20029;-94
2021/04/12 03:12:10;;;;;;;1.77;1.42;;;7.40;99.90;;;;;;5007796;28;20037;-94
2021/04/12 03:15:23;;;;;;;1.30;1.20;;;7.20;99.90;;;;;;5014401;28;20026;-94
2021/04/12 03:18:00;;;;;;;1.38;1.27;;;7.20;99.90;;;;;;4934696;29;20477;-95
2021/04/12 03:20:40;;;;;;;1.20;1.10;;;7.30;99.90;;;;;;4936278;29;20531;-95
2021/04/12 03:23:45;;;;;;;1.40;1.30;;;7.30;99.90;;;;;;4936434;29;20039;-94
2021/04/12 03:26:16;;;;;;;1.15;1.05;;;7.30;99.90;;;;;;4923368;29;20118;-94
2021/04/12 03:29:08;;;;;;;1.27;1.17;;;7.60;99.90;;;;;;4935973;29;20052;-95
2021/04/12 03:31:49;;;;;;;1.25;1.15;;;7.20;99.90;;;;;;4935765;29;20603;-94
2021/04/12 03:34:33;;;;;;;1.13;1.02;;;7.20;99.90;;;;;;4936193;29;20040;-94
2021/04/12 03:37:49;;;;;;;1.20;1.08;;;6.90;99.90;;;;;;4936643;29;20131;-95
2021/04/12 03:40:23;;;;;;;1.23;1.13;;;6.90;99.90;;;;;;4861245;29;20417;-94
2021/04/12 03:43:17;;;;;;;1.30;1.20;;;6.90;99.90;;;;;;4879539;29;20510;-95
2021/04/12 03:46:15;;;;;;;1.80;1.10;;;6.90;99.90;;;;;;4877024;29;20530;-95
2021/04/12 03:49:30;;;;;;;1.20;1.10;;;7.00;99.90;;;;;;4852418;29;20056;-94
2021/04/12 03:52:17;;;;;;;1.48;1.38;;;7.00;99.90;;;;;;4878165;29;20037;-94
2021/04/12 03:55:12;;;;;;;1.40;1.30;;;7.00;99.90;;;;;;4922739;29;20043;-94
2021/04/12 03:58:04;;;;;;;3.08;1.20;;;7.20;99.90;;;;;;4933166;29;20163;-95
2021/04/12 04:01:03;;;;;;;1.40;1.30;;;7.10;99.90;;;;;;4859724;29;20104;-95
2021/04/12 04:03:31;;;;;;;1.45;1.35;;;6.80;99.90;;;;;;4860728;29;20050;-95
2021/04/12 04:06:29;;;;;;;1.23;1.13;;;6.80;99.90;;;;;;4860051;29;20037;-95
2021/04/12 04:09:17;;;;;;;1.30;1.20;;;6.80;99.90;;;;;;4860261;29;20124;-95
2021/04/12 04:11:54;;;;;;;1.48;1.38;;;6.70;99.90;;;;;;4859030;29;20379;-95
2021/04/12 04:14:53;;;;;;;1.45;1.35;;;7.20;99.90;;;;;;4862643;29;20073;-95
2021/04/12 04:17:37;;;;;;;1.60;1.50;;;6.80;99.90;;;;;;4906433;29;20031;-95
2021/04/12 04:20:40;;;;;;;1.30;1.20;;;6.70;99.90;;;;;;4900490;29;20036;-95
2021/04/12 04:23:32;;;;;;;1.02;1.02;;;6.80;99.90;;;;;;4910136;29;20047;-96
2021/04/12 04:26:19;;;;;;;1.63;1.20;;;6.60;99.90;;;;;;4901431;29;20040;-95
2021/04/12 04:28:48;;;;;;;1.23;1.13;;;6.70;99.90;;;;;;4915017;29;20032;-95
2021/04/12 04:31:24;;;;;;;1.33;1.23;;;6.60;99.90;;;;;;4915775;29;20045;-95
2021/04/12 04:34:02;;;;;;;1.45;1.35;;;6.70;99.90;;;;;;4914053;29;20534;-96
2021/04/12 04:36:44;;;;;;;1.80;1.70;;;6.70;99.90;;;;;;4915831;28;20032;-95
2021/04/12 04:39:46;;;;;;;1.95;1.80;;;6.60;99.90;;;;;;5007526;28;20034;-95
2021/04/12 04:42:28;;;;;;;2.58;2.38;;;6.60;99.90;;;;;;5012793;28;20034;-95
2021/04/12 04:45:15;;;;;;;1.98;1.80;;;6.60;99.90;;;;;;5013496;28;20398;-94
2021/04/12 04:48:05;;;;;;;2.92;2.58;;;6.70;99.90;;;;;;5010473;28;20225;-95
2021/04/12 04:51:01;;;;;;;1.85;1.75;;;6.80;99.90;;;;;;5013210;28;20592;-95
2021/04/12 04:53:33;;;;;;;1.98;1.88;;;6.70;99.90;;;;;;4993170;28;20133;-95
2021/04/12 04:56:11;;;;;;;2.55;2.00;;;6.70;99.90;;;;;;5013040;28;20033;-94
2021/04/12 04:59:09;;;;;;;3.80;2.40;;;6.60;99.90;;;;;;5013750;28;20058;-95
2021/04/12 05:02:11;;;;;;;2.40;2.20;;;6.60;99.90;;;;;;4934682;29;20134;-94
2021/04/12 05:05:11;;;;;;;3.15;2.85;;;6.70;99.90;;;;;;4931921;29;20067;-95
2021/04/12 05:08:04;;;;;;;3.33;2.80;;;6.70;99.90;;;;;;4932495;29;20118;-94
2021/04/12 05:11:21;;;;;;;3.80;3.40;;;6.60;99.90;;;;;;4932515;29;20055;-95
2021/04/12 05:14:24;;;;;;;3.10;2.85;;;6.50;99.90;;;;;;4896380;29;20231;-95
2021/04/12 05:17:27;;;;;;;3.55;3.25;;;6.50;99.90;;;;;;4840910;29;20074;-94
2021/04/12 05:20:13;;;;;;;4.00;3.60;;;6.70;99.90;;;;;;4825113;29;20416;-95
2021/04/12 05:23:08;;;;;;;3.92;3.63;;;6.80;99.90;;;;;;4837524;29;20054;-95
2021/04/12 05:25:50;;;;;;;3.97;3.67;;;6.70;99.90;;;;;;4839622;29;20034;-95
2021/04/12 05:28:21;;;;;;;4.55;4.10;;;6.90;99.90;;;;;;4840727;29;20046;-95
2021/04/12 05:31:17;;;;;;;4.32;3.92;;;6.80;99.90;;;;;;4840504;29;20508;-93
2021/04/12 05:34:03;;;;;;;5.10;4.60;;;6.80;99.90;;;;;;4839552;29;20026;-95
2021/04/12 05:37:02;;;;;;;6.35;4.90;;;6.70;99.90;;;;;;4839998;29;20595;-94
2021/04/12 05:39:58;;;;;;;7.18;5.40;;;6.80;99.90;;;;;;4871915;29;20590;-95
2021/04/12 05:42:42;;;;;;;6.80;5.07;;;6.80;99.90;;;;;;4876191;29;20049;-94
2021/04/12 05:45:30;;;;;;;5.97;5.38;;;6.70;99.90;;;;;;4872276;29;20040;-95
2021/04/12 05:48:24;;;;;;;6.95;6.15;;;6.80;99.90;;;;;;4898135;29;20063;-94
2021/04/12 05:51:17;;;;;;;6.80;5.97;;;7.00;99.90;;;;;;4910121;29;20481;-95
2021/04/12 05:54:08;;;;;;;7.43;6.45;;;6.80;99.90;;;;;;4938213;28;20072;-95
2021/04/12 05:57:04;;;;;;;7.78;6.60;;;6.70;99.90;;;;;;4988904;28;20105;-94
2021/04/12 05:59:52;;;;;;;7.65;6.55;;;6.90;99.90;;;;;;5010295;28;20025;-95
2021/04/12 06:02:31;;;;;;;7.70;6.90;;;7.00;99.90;;;;;;5012496;28;20038;-95
2021/04/12 06:05:21;;;;;;;8.45;7.03;;;7.10;99.90;;;;;;4994864;28;20026;-95
2021/04/12 06:08:11;;;;;;;8.98;6.90;;;7.00;99.90;;;;;;5010115;28;20028;-95
2021/04/12 06:11:13;;;;;;;7.80;7.00;;;7.00;99.90;;;;;;4994518;28;20030;-95
2021/04/12 06:13:59;;;;;;;7.72;6.97;;;7.00;99.90;;;;;;5010078;28;20176;-94
2021/04/12 06:16:30;;;;;;;7.10;6.40;;;7.10;99.90;;;;;;4992482;28;20061;-95
2021/04/12 06:19:36;;;;;;;8.38;6.78;;;7.10;99.90;;;;;;5011418;28;20363;-92
2021/04/12 06:22:24;;;;;;;6.75;6.05;;;7.20;99.90;;;;;;5015022;28;20042;-96
2021/04/12 06:25:15;;;;;;;6.65;5.90;;;7.50;99.90;;;;;;5013215;28;20094;-94
2021/04/12 06:27:51;;;;;;;9.23;5.90;;;7.50;99.90;;;;;;5014932;28;20053;-96
2021/04/12 06:30:54;;;;;;;6.97;6.28;;;7.30;99.90;;;;;;5015750;28;20048;-94
2021/04/12 06:33:38;;;;;;;8.27;5.63;;;7.30;99.90;;;;;;5012486;28;20181;-92
2021/04/12 06:36:18;;;;;;;9.25;8.13;;;7.30;99.90;;;;;;5011049;28;20108;-94
2021/04/12 06:39:06;;;;;;;7.32;6.55;;;7.30;99.90;;;;;;5012029;28;20033;-92
2021/04/12 06:41:53;;;;;;;8.05;6.55;;;7.40;99.90;;;;;;5013350;28;20092;-92
2021/04/12 06:44:41;;;;;;;7.63;6.28;;;7.40;99.90;;;;;;5015358;28;20026;-90
2021/04/12 06:47:38;;;;;;;10.07;7.07;;;7.50;99.90;;;;;;5009252;28;20037;-91
2021/04/12 06:50:28;;;;;;;9.43;7.18;;;7.60;99.90;;;;;;4993123;28;20034;-92
2021/04/12 06:53:14;;;;;;;7.82;6.95;;;7.80;99.90;;;;;;4993249;28;20073;-89
2021/04/12 06:55:55;;;;;;;8.13;7.05;;;7.90;99.90;;;;;;5009796;28;20072;-91
2021/04/12 06:58:42;;;;;;;8.00;7.20;;;8.10;99.90;;;;;;4991435;28;20430;-91
2021/04/12 07:01:31;;;;;;;8.45;7.30;;;8.30;99.90;;;;;;5011309;28;20034;-93
2021/04/12 07:04:22;;;;;;;8.95;7.05;;;8.80;99.90;;;;;;5009241;28;20076;-91
2021/04/12 07:07:08;;;;;;;8.65;7.47;;;8.90;99.90;;;;;;5010990;28;20026;-93
2021/04/12 07:10:03;;;;;;;7.90;6.97;;;8.50;99.90;;;;;;5012016;28;20022;-93
2021/04/12 07:13:06;;;;;;;9.60;7.47;;;8.50;99.90;;;;;;5018346;28;20041;-94
2021/04/12 07:15:37;;;;;;;9.75;7.80;;;8.50;99.90;;;;;;5000306;28;20049;-96
2021/04/12 07:18:36;;;;;;;8.65;7.78;;;8.40;99.90;;;;;;5014327;28;20030;-94
2021/04/12 07:21:20;;;;;;;8.20;7.37;;;8.30;99.90;;;;;;5018493;28;20117;-94
2021/04/12 07:24:24;;;;;;;8.43;7.63;;;8.40;99.90;;;;;;5014306;28;20030;-89
2021/04/12 07:27:08;;;;;;;8.32;7.45;;;8.20;99.90;;;;;;5010502;28;20037;-90
2021/04/12 07:29:48;;;;;;;7.95;7.15;;;8.30;99.90;;;;;;5010592;28;20026;-92
2021/04/12 07:32:35;;;;;;;8.90;8.00;;;8.40;99.90;;;;;;5010775;28;20039;-87
2021/04/12 07:35:31;;;;;;;8.90;7.90;;;8.70;99.90;;;;;;4993609;28;20124;-89
2021/04/12 07:38:05;;;;;;;8.88;7.97;;;8.80;99.90;;;;;;4999199;28;20037;-90
2021/04/12 07:40:55;;;;;;;8.63;7.13;;;9.00;99.90;;;;;;5010421;28;20026;-93
2021/04/12 07:43:49;;;;;;;9.18;8.20;;;9.20;99.90;;;;;;4996087;28;20125;-94
2021/04/12 07:46:51;;;;;;;9.20;8.15;;;9.80;99.90;;;;;;5012716;28;20077;-91
2021/04/12 07:49:50;;;;;;;7.95;7.15;;;9.70;99.90;;;;;;5014978;28;20038;-92
2021/04/12 07:52:35;;;;;;;8.07;6.90;;;9.30;99.90;;;;;;5081842;23;20060;-95
2021/04/12 07:55:19;;;;;;;8.45;7.30;;;9.50;99.90;;;;;;4997018;28;20096;-92
2021/04/12 07:58:22;;;;;;;8.73;7.57;;;10.00;99.90;;;;;;4992743;28;20026;-90
2021/04/12 08:01:14;;;;;;;10.40;8.10;;;10.20;99.90;;;;;;4994406;28;20037;-96
2021/04/12 08:04:15;;;;;;;9.10;8.05;;;10.80;99.90;;;;;;4993537;28;20046;-93
2021/04/12 08:07:01;;;;;;;8.43;7.63;;;10.40;99.90;;;;;;4956972;28;20072;-92
2021/04/12 08:10:04;;;;;;;9.65;7.38;;;9.80;99.90;;;;;;4956590;28;20050;-94
2021/04/12 08:12:35;;;;;;;11.25;7.40;;;9.80;99.90;;;;;;4953700;28;20521;-93
2021/04/12 08:15:28;;;;;;;8.50;7.63;;;9.30;99.90;;;;;;4953246;29;20567;-93
2021/04/12 08:17:59;;;;;;;8.95;6.90;;;9.30;99.90;;;;;;4930932;29;20432;-91
2021/04/12 08:20:54;;;;;;;8.30;7.13;;;9.30;99.90;;;;;;4945797;29;20027;-91
2021/04/12 08:23:53;;;;;;;7.93;7.13;;;9.90;99.90;;;;;;4948838;29;21131;-94
2021/04/12 08:26:56;;;;;;;11.40;7.85;;;10.20;99.90;;;;;;4954158;28;20070;-87
2021/04/12 08:29:33;;;;;;;8.02;6.82;;;9.70;99.90;;;;;;4947751;29;20027;-94
2021/04/12 08:32:29;;;;;;;8.07;6.82;;;9.80;99.90;;;;;;4942573;28;20043;-91
2021/04/12 08:35:01;;;;;;;9.50;7.05;;;9.50;99.90;;;;;;4947660;28;20029;-93
2021/04/12 08:37:57;;;;;;;9.70;7.60;;;10.00;99.90;;;;;;4946569;29;20118;-94
2021/04/12 08:40:36;;;;;;;8.20;6.93;;;10.20;99.90;;;;;;4943373;29;20019;-96
2021/04/12 08:43:32;;;;;;;7.78;6.97;;;10.40;99.90;;;;;;4961438;28;20174;-92
2021/04/12 08:46:42;;;;;;;7.18;6.32;;;10.50;99.90;;;;;;4990344;28;20060;-94
2021/04/12 08:49:26;;;;;;;7.18;6.47;;;11.00;99.90;;;;;;4964314;28;20550;-90
2021/04/12 08:52:12;;;;;;;7.97;7.00;;;11.40;99.90;;;;;;4956115;28;20035;-89
2021/04/12 08:54:56;;;;;;;8.63;6.90;;;10.80;99.90;;;;;;4953021;28;20047;-93
2021/04/12 08:57:49;;;;;;;6.88;6.18;;;10.20;99.90;;;;;;4960130;28;20487;-93
2021/04/12 09:00:29;;;;;;;7.82;6.32;;;10.30;99.90;;;;;;4960044;28;20058;-90
2021/04/12 09:03:33;;;;;;;7.03;6.20;;;10.30;99.90;;;;;;4966303;28;20074;-89
2021/04/12 09:06:08;;;;;;;8.95;6.93;;;10.20;99.90;;;;;;4894683;29;20277;-95
2021/04/12 09:09:41;;;;;;;8.95;6.28;;;10.50;99.90;;;;;;4889906;29;20029;-94
2021/04/12 09:12:57;;;;;;;6.10;5.50;;;11.40;99.90;;;;;;4766196;30;20050;-96
2021/04/12 09:15:41;;;;;;;12.82;6.05;;;11.90;99.90;;;;;;4728061;30;20537;-90
2021/04/12 09:18:09;;;;;;;6.88;5.88;;;12.30;99.90;;;;;;4727290;30;20052;-95
2021/04/12 09:23:28;;;;;;;7.85;6.60;;;11.30;99.90;;;;;;5101692;23;20058;-95
2021/04/12 09:26:19;;;;;;;7.97;5.78;;;10.80;99.90;;;;;;5004696;28;20022;-96
2021/04/12 09:29:15;;;;;;;10.73;7.57;;;10.90;99.90;;;;;;5002523;28;20037;-96
2021/04/12 09:31:45;;;;;;;8.43;6.93;;;10.50;99.90;;;;;;5005696;28;20505;-94
2021/04/12 09:34:26;;;;;;;8.98;6.80;;;10.10;99.90;;;;;;5008389;28;20030;-87
2021/04/12 09:37:36;;;;;;;10.27;7.30;;;9.50;99.90;;;;;;5008191;28;20056;-96
2021/04/12 09:40:23;;;;;;;6.95;6.28;;;9.50;99.90;;;;;;5000850;28;20065;-95
2021/04/12 09:43:30;;;;;;;8.38;7.38;;;9.70;99.90;;;;;;5019684;28;20046;-94
2021/04/12 09:46:30;;;;;;;7.20;6.13;;;9.60;99.90;;;;;;4999455;28;20120;-93
2021/04/12 09:49:20;;;;;;;8.57;6.07;;;10.20;99.90;;;;;;4994466;28;20036;-89
2021/04/12 09:52:09;;;;;;;7.05;5.22;;;11.20;99.90;;;;;;5008682;28;20560;-88
2021/04/12 09:54:57;;;;;;;7.75;5.78;;;11.40;99.90;;;;;;4932762;29;20114;-87
2021/04/12 09:57:53;;;;;;;5.40;4.90;;;11.50;99.90;;;;;;4932092;29;20082;-87
2021/04/12 10:00:27;;;;;;;5.68;4.40;;;12.10;99.90;;;;;;4925526;29;20556;-92
2021/04/12 10:03:02;;;;;;;5.13;4.60;;;12.10;99.90;;;;;;4924892;29;20548;-88
2021/04/12 10:06:04;;;;;;;7.60;4.97;;;12.70;99.90;;;;;;4935137;29;20048;-96
2021/04/12 10:08:35;;;;;;;4.95;4.40;;;12.30;99.90;;;;;;4934251;29;20075;-96
2021/04/12 10:11:08;;;;;;;6.10;4.60;;;12.10;99.90;;;;;;4942616;28;20027;-93
2021/04/12 10:14:01;;;;;;;5.40;4.10;;;11.80;99.90;;;;;;4935323;29;20123;-90
2021/04/12 10:16:32;;;;;;;5.30;4.13;;;12.70;99.90;;;;;;4943102;29;20035;-96
2021/04/12 10:19:20;;;;;;;4.00;3.47;;;14.80;99.90;;;;;;4947817;29;20191;-96
2021/04/12 10:21:51;;;;;;;5.13;4.28;;;20.00;99.90;;;;;;4939728;29;20058;-88
2021/04/12 10:24:31;;;;;;;4.60;4.20;;;22.60;99.90;;;;;;4927879;28;20035;-96
2021/04/12 10:26:59;;;;;;;4.50;3.90;;;20.20;99.90;;;;;;4933733;29;20032;-93
2021/04/12 10:29:34;;;;;;;4.90;4.40;;;15.00;99.90;;;;;;4938831;29;20114;-94
2021/04/12 10:32:14;;;;;;;6.70;4.30;;;13.00;99.90;;;;;;4971780;28;20119;-96
2021/04/12 10:34:57;;;;;;;4.60;3.85;;;16.70;99.90;;;;;;5009430;28;20022;-95
2021/04/12 10:37:48;;;;;;;6.88;4.38;;;19.50;99.90;;;;;;4981621;28;20037;-93
2021/04/12 10:40:28;;;;;;;4.78;3.92;;;19.70;99.90;;;;;;5003450;28;20026;-96
2021/04/12 10:42:53;;;;;;;5.05;4.30;;;25.10;99.90;;;;;;5021404;28;20038;-95
2021/04/12 10:45:31;;;;;;;4.47;4.07;;;20.80;99.90;;;;;;4990958;28;20064;-96
2021/04/12 10:48:10;;;;;;;4.95;4.30;;;15.90;99.90;;;;;;5012320;28;20109;-94
2021/04/12 10:50:56;;;;;;;5.10;3.55;;;14.20;99.90;;;;;;5008750;28;20026;-93
2021/04/12 10:53:40;;;;;;;5.68;4.05;;;13.40;99.90;;;;;;5008914;28;20026;-94
2021/04/12 10:56:33;;;;;;;5.10;4.30;;;13.60;99.90;;;;;;5001349;28;20037;-96
2021/04/12 10:59:30;;;;;;;5.78;4.30;;;13.20;99.90;;;;;;5000562;28;20036;-96
2021/04/12 11:02:20;;;;;;;5.68;4.13;;;13.00;99.90;;;;;;4994817;28;20128;-90
2021/04/12 11:05:02;;;;;;;4.90;4.40;;;13.00;99.90;;;;;;5010152;28;20122;-89
2021/04/12 11:07:55;;;;;;;5.15;4.00;;;12.20;99.90;;;;;;5007198;28;20026;-90
2021/04/12 11:10:54;;;;;;;6.05;4.40;;;11.80;99.90;;;;;;5012123;28;20033;-91
2021/04/12 11:13:34;;;;;;;5.20;4.20;;;11.00;99.90;;;;;;5010647;28;20038;-96
2021/04/12 11:16:18;;;;;;;4.95;4.10;;;11.00;99.90;;;;;;5002508;28;20034;-93
2021/04/12 11:19:16;;;;;;;4.60;4.20;;;11.70;99.90;;;;;;4987569;28;20030;-94
2021/04/12 11:22:17;;;;;;;5.53;4.35;;;11.50;99.90;;;;;;5005950;28;20051;-92
2021/04/12 11:24:59;;;;;;;5.47;4.25;;;11.50;99.90;;;;;;5008392;28;20418;-95
2021/04/12 11:27:43;;;;;;;6.85;3.95;;;11.60;99.90;;;;;;4985145;28;20407;-88
2021/04/12 11:30:34;;;;;;;5.85;3.90;;;12.30;99.90;;;;;;5000998;28;20037;-91
2021/04/12 11:33:06;;;;;;;7.88;3.63;;;14.40;99.90;;;;;;5008389;28;20120;-89
2021/04/12 11:35:38;;;;;;;5.25;3.45;;;13.90;99.90;;;;;;5009971;28;20033;-95
2021/04/12 11:38:17;;;;;;;4.45;3.88;;;13.30;99.90;;;;;;5005036;28;20018;-91
2021/04/12 11:40:51;;;;;;;4.30;3.42;;;12.90;99.90;;;;;;4999348;28;20033;-92
2021/04/12 11:43:30;;;;;;;5.15;3.55;;;15.00;99.90;;;;;;5004703;28;20070;-90
2021/04/12 11:46:20;;;;;;;4.22;3.42;;;14.90;99.90;;;;;;4988953;28;20139;-94
2021/04/12 11:48:55;;;;;;;5.53;3.60;;;13.30;99.90;;;;;;5012436;28;20041;-96
2021/04/12 11:51:58;;;;;;;3.35;3.05;;;15.30;99.90;;;;;;5012807;28;20030;-93
2021/04/12 11:54:46;;;;;;;3.70;3.35;;;17.10;99.90;;;;;;5022449;28;20042;-96
2021/04/12 11:57:33;;;;;;;4.05;3.65;;;16.10;99.90;;;;;;5007624;28;20017;-93
2021/04/12 12:00:05;;;;;;;5.03;4.05;;;14.40;99.90;;;;;;5019909;28;20042;-96
2021/04/12 12:03:12;;;;;;;5.40;3.83;;;14.50;99.90;;;;;;5023932;28;20034;-95
2021/04/12 12:06:11;;;;;;;5.18;4.00;;;15.40;99.90;;;;;;4985707;28;20046;-92
2021/04/12 12:09:15;;;;;;;4.72;3.65;;;15.30;99.90;;;;;;5008128;28;20042;-95
2021/04/12 12:12:02;;;;;;;5.63;3.60;;;16.80;99.90;;;;;;4938994;29;20538;-95
2021/04/12 12:14:49;;;;;;;4.63;3.50;;;15.60;99.90;;;;;;4942373;29;20112;-95
2021/04/12 12:17:19;;;;;;;3.97;3.58;;;14.20;99.90;;;;;;4936995;29;20046;-93
2021/04/12 12:19:46;;;;;;;4.57;3.30;;;14.70;99.90;;;;;;4941269;29;20043;-95
2021/04/12 12:22:53;;;;;;;3.60;3.30;;;13.50;99.90;;;;;;4937984;29;20424;-96
2021/04/12 12:25:42;;;;;;;5.13;3.22;;;15.90;99.90;;;;;;4938654;29;20035;-92
2021/04/12 12:28:31;;;;;;;6.18;3.30;;;14.70;99.90;;;;;;4934280;28;20035;-90
2021/04/12 12:31:31;;;;;;;5.38;3.15;;;15.30;99.90;;;;;;4880541;29;20081;-96
2021/04/12 12:34:08;;;;;;;3.25;2.95;;;15.10;99.90;;;;;;4888880;29;20037;-96
2021/04/12 12:36:49;;;;;;;4.05;3.00;;;14.90;99.90;;;;;;4892325;29;20036;-94
2021/04/12 12:39:29;;;;;;;4.90;3.33;;;14.50;99.90;;;;;;4881150;29;20598;-94
2021/04/12 12:42:01;;;;;;;3.67;3.28;;;15.70;99.90;;;;;;4868759;29;20133;-96
2021/04/12 12:44:28;;;;;;;5.45;3.50;;;16.50;99.90;;;;;;4877064;29;20045;-92
2021/04/12 12:47:04;;;;;;;3.63;3.33;;;15.10;99.90;;;;;;4889681;29;20070;-96
2021/04/12 12:49:32;;;;;;;5.53;3.53;;;14.90;99.90;;;;;;4957782;29;20199;-91
2021/04/12 12:52:02;;;;;;;3.47;3.17;;;14.60;99.90;;;;;;4952534;29;20054;-94
2021/04/12 12:54:44;;;;;;;4.38;3.42;;;15.60;99.90;;;;;;4953119;29;20066;-94
2021/04/12 12:57:38;;;;;;;4.88;3.20;;;17.70;99.90;;;;;;4952436;29;20074;-93
2021/04/12 13:00:36;;;;;;;3.78;2.67;;;19.00;99.90;;;;;;4952676;29;20051;-90
2021/04/12 13:03:19;;;;;;;4.20;2.90;;;18.70;99.90;;;;;;4953188;28;20047;-88
2021/04/12 13:05:48;;;;;;;3.00;2.63;;;16.60;99.90;;;;;;4950429;28;20448;-93
2021/04/12 13:08:32;;;;;;;3.42;2.90;;;15.70;99.90;;;;;;4987020;28;20038;-89
2021/04/12 13:10:58;;;;;;;3.70;2.65;;;15.10;99.90;;;;;;4996556;28;20142;-92
2021/04/12 13:13:36;;;;;;;4.20;2.50;;;14.40;99.90;;;;;;5012617;28;20483;-89
2021/04/12 13:16:17;;;;;;;3.20;2.42;;;14.20;99.90;;;;;;5007834;28;20472;-89
2021/04/12 13:19:05;;;;;;;4.07;2.60;;;14.50;99.90;;;;;;5002670;28;20069;-87
2021/04/12 13:21:34;;;;;;;4.38;2.58;;;14.00;99.90;;;;;;5003852;28;20486;-86
2021/04/12 13:24:09;;;;;;;5.32;3.17;;;14.00;99.90;;;;;;5001860;28;20526;-84
2021/04/12 13:26:41;;;;;;;3.85;2.70;;;14.60;99.90;;;;;;5003460;28;20026;-91
2021/04/12 13:29:28;;;;;;;4.38;2.90;;;15.50;99.90;;;;;;4994491;28;20530;-94
2021/04/12 13:31:58;;;;;;;4.38;2.80;;;15.60;99.90;;;;;;4997239;28;20022;-94
2021/04/12 13:34:38;;;;;;;4.90;3.42;;;16.20;99.90;;;;;;5014442;28;20516;-93
2021/04/12 13:37:17;;;;;;;3.33;2.85;;;15.80;99.90;;;;;;5013465;28;20076;-87
2021/04/12 13:39:45;;;;;;;3.28;2.55;;;14.70;99.90;;;;;;5011414;28;20076;-87
2021/04/12 13:42:34;;;;;;;2.97;2.67;;;16.10;99.90;;;;;;5010066;28;20038;-87
2021/04/12 13:45:07;;;;;;;4.05;2.97;;;15.60;99.90;;;;;;4993871;28;20041;-89
2021/04/12 13:47:43;;;;;;;4.10;2.95;;;15.60;99.90;;;;;;5001720;28;20084;-93
2021/04/12 13:50:31;;;;;;;3.40;2.50;;;15.10;99.90;;;;;;5008558;28;20109;-93
2021/04/12 13:53:08;;;;;;;3.53;2.33;;;15.20;99.90;;;;;;4995391;28;20031;-93
2021/04/12 13:55:54;;;;;;;4.30;3.10;;;14.00;99.90;;;;;;5011934;28;20044;-93
2021/04/12 13:58:35;;;;;;;4.57;2.55;;;14.30;99.90;;;;;;5011659;28;20482;-93
2021/04/12 14:01:12;;;;;;;3.13;2.60;;;14.60;99.90;;;;;;5011840;28;20033;-93
2021/04/12 14:03:55;;;;;;;3.28;2.53;;;14.60;99.90;;;;;;5008802;28;20033;-92
2021/04/12 14:06:30;;;;;;;5.10;2.50;;;16.20;99.90;;;;;;4989796;28;20022;-93
2021/04/12 14:09:07;;;;;;;4.35;2.40;;;17.50;99.90;;;;;;5006599;28;20038;-94
2021/04/12 14:11:56;;;;;;;2.33;2.13;;;17.90;99.90;;;;;;5009095;28;20030;-94
2021/04/12 14:14:21;;;;;;;3.80;2.50;;;17.40;99.90;;;;;;4981840;28;20072;-93
2021/04/12 14:16:54;;;;;;;4.97;2.90;;;16.30;99.90;;;;;;5002449;28;20058;-93
2021/04/12 14:19:26;;;;;;;5.55;2.70;;;15.40;99.90;;;;;;5011512;28;20026;-93
2021/04/12 14:22:04;;;;;;;3.40;2.80;;;15.10;99.90;;;;;;5010389;28;20050;-93
2021/04/12 14:24:45;;;;;;;2.70;2.17;;;14.80;99.90;;;;;;5006498;28;20022;-93
2021/04/12 14:27:22;;;;;;;3.05;2.47;;;14.60;99.90;;;;;;5009519;28;20481;-94
2021/04/12 14:30:05;;;;;;;2.92;2.28;;;14.50;99.90;;;;;;4992411;28;20112;-93
2021/04/12 14:32:36;;;;;;;3.97;2.15;;;14.50;99.90;;;;;;5009384;28;20036;-93
2021/04/12 14:35:13;;;;;;;4.25;2.22;;;15.50;99.90;;;;;;4992189;28;20402;-92
2021/04/12 14:37:40;;;;;;;3.58;2.20;;;16.90;99.90;;;;;;5004052;28;20048;-94